Time;durP1;ratioP1;P1;durP2;ratioP2;P2;SDS_P1;SDS_P2;PMS_P1;PMS_P2;Temp;Humidity;BMP_temperature;BMP_pressure;BME280_temperature;BME280_humidity;BME280_pressure;Samples;Min_cycle;Max_cycle;Signal;HPM_P1;HPM_P2
2023/08/03 00:00:25;;;;;;;5.18;1.60;;;;;;;15.68;100.00;98870.94;5031382;28;20030;-70
2023/08/03 00:02:51;;;;;;;2.53;1.17;;;;;;;15.71;100.00;98880.38;5046424;28;20041;-70
2023/08/03 00:05:19;;;;;;;3.90;1.20;;;;;;;15.70;100.00;98890.31;5030958;28;20464;-70
2023/08/03 00:07:44;;;;;;;4.57;1.80;;;;;;;15.68;100.00;98892.44;5030743;28;20030;-70
2023/08/03 00:10:10;;;;;;;5.95;1.40;;;;;;;15.70;100.00;98889.53;5030908;28;20025;-70
2023/08/03 00:12:37;;;;;;;4.13;1.40;;;;;;;15.71;100.00;98885.75;5030729;28;20053;-70
2023/08/03 00:15:02;;;;;;;3.75;1.40;;;;;;;15.71;100.00;98888.44;5031118;28;20556;-70
2023/08/03 00:17:28;;;;;;;2.17;1.20;;;;;;;15.71;100.00;98889.22;5031143;28;20030;-70
2023/08/03 00:19:53;;;;;;;3.33;1.30;;;;;;;15.73;100.00;98899.72;5031218;28;20384;-70
2023/08/03 00:22:19;;;;;;;2.05;1.40;;;;;;;15.73;100.00;98903.19;5031078;28;20029;-71
2023/08/03 00:24:44;;;;;;;3.58;1.35;;;;;;;15.74;100.00;98896.72;5031004;28;20029;-70
2023/08/03 00:27:09;;;;;;;2.33;1.58;;;;;;;15.76;100.00;98905.31;5030931;28;20040;-70
2023/08/03 00:29:35;;;;;;;2.67;1.50;;;;;;;15.78;100.00;98897.00;5030994;28;20037;-70
2023/08/03 00:32:01;;;;;;;3.63;2.13;;;;;;;15.80;100.00;98908.28;5030964;28;20041;-70
2023/08/03 00:34:29;;;;;;;3.70;2.30;;;;;;;15.81;100.00;98915.25;5030876;28;20515;-70
2023/08/03 00:36:54;;;;;;;2.67;2.20;;;;;;;15.81;100.00;98917.94;5030239;28;20120;-70
2023/08/03 00:39:19;;;;;;;2.17;1.90;;;;;;;15.83;100.00;98914.97;5029353;28;20567;-70
2023/08/03 00:41:45;;;;;;;4.78;2.60;;;;;;;15.85;100.00;98931.63;5030713;28;20040;-70
2023/08/03 00:44:10;;;;;;;3.60;2.70;;;;;;;15.84;100.00;98938.88;5030700;28;20496;-70
2023/08/03 00:46:35;;;;;;;4.97;3.17;;;;;;;15.87;100.00;98948.28;5030587;28;20392;-70
2023/08/03 00:49:01;;;;;;;4.65;3.38;;;;;;;15.91;100.00;98950.13;5030506;28;20031;-71
2023/08/03 00:51:27;;;;;;;9.32;3.40;;;;;;;15.92;100.00;98956.31;5030473;28;20033;-70
2023/08/03 00:53:53;;;;;;;6.30;3.78;;;;;;;15.91;100.00;98957.41;5030438;28;20041;-71
2023/08/03 00:56:18;;;;;;;6.68;3.58;;;;;;;15.91;100.00;98966.28;5045645;28;20036;-70
2023/08/03 00:58:44;;;;;;;10.45;4.13;;;;;;;15.93;100.00;98964.13;5030395;28;20041;-70
2023/08/03 01:01:09;;;;;;;10.57;4.43;;;;;;;15.93;100.00;98963.31;5030189;28;20432;-71
2023/08/03 01:03:35;;;;;;;13.57;5.35;;;;;;;15.96;100.00;98968.13;5030261;28;20036;-70
2023/08/03 01:06:00;;;;;;;7.10;5.05;;;;;;;15.96;100.00;98968.94;5030077;28;20025;-71
2023/08/03 01:08:26;;;;;;;10.15;4.78;;;;;;;15.97;100.00;98975.09;5030151;28;20725;-70
2023/08/03 01:10:52;;;;;;;10.45;4.25;;;;;;;15.97;100.00;98983.97;5030090;28;20033;-70
2023/08/03 01:13:18;;;;;;;8.80;3.88;;;;;;;15.98;100.00;98992.84;5028673;28;20137;-71
2023/08/03 01:15:44;;;;;;;7.05;4.22;;;;;;;15.97;100.00;98988.53;5029953;28;20485;-71
2023/08/03 01:18:09;;;;;;;9.10;4.28;;;;;;;15.95;100.00;98996.09;5029143;28;20030;-70
2023/08/03 01:20:37;;;;;;;5.95;4.50;;;;;;;15.97;100.00;99005.47;5029973;28;20036;-70
2023/08/03 01:23:04;;;;;;;6.80;4.05;;;;;;;15.95;100.00;99009.53;5028699;28;20524;-70
2023/08/03 01:25:31;;;;;;;9.20;5.13;;;;;;;15.93;100.00;99001.75;5029888;28;20473;-70
2023/08/03 01:27:56;;;;;;;9.65;4.75;;;;;;;15.90;100.00;99015.75;5029783;28;20037;-70
2023/08/03 01:30:22;;;;;;;9.55;5.20;;;;;;;15.88;100.00;99007.16;5029729;28;20040;-70
2023/08/03 01:32:48;;;;;;;10.90;5.35;;;;;;;15.90;100.00;99021.13;5029760;28;20061;-70
2023/08/03 01:35:13;;;;;;;11.82;6.05;;;;;;;15.89;100.00;99016.81;5029705;28;20115;-70
2023/08/03 01:37:38;;;;;;;13.88;5.40;;;;;;;15.85;100.00;99042.66;5029752;28;20476;-70
2023/08/03 01:40:04;;;;;;;8.57;5.95;;;;;;;15.74;100.00;99019.56;5029715;28;20040;-70
2023/08/03 01:42:30;;;;;;;12.27;6.22;;;;;;;15.74;100.00;99031.13;5029611;28;20032;-70
2023/08/03 01:44:55;;;;;;;10.30;4.75;;;;;;;15.69;100.00;99022.28;5029724;28;20033;-70
2023/08/03 01:47:21;;;;;;;9.80;4.63;;;;;;;15.70;100.00;99031.97;5029290;28;20033;-70
2023/08/03 01:49:46;;;;;;;11.02;6.10;;;;;;;15.70;100.00;99040.84;5045059;28;20033;-70
2023/08/03 01:52:11;;;;;;;9.85;5.53;;;;;;;15.71;100.00;99033.56;5029361;28;20469;-71
2023/08/03 01:54:37;;;;;;;13.98;6.85;;;;;;;15.70;100.00;99048.09;5029497;28;20040;-70
2023/08/03 01:57:02;;;;;;;13.52;6.03;;;;;;;15.72;100.00;99049.44;5029374;28;20036;-70
2023/08/03 01:59:27;;;;;;;12.90;5.53;;;;;;;15.75;100.00;99042.69;5029385;28;20026;-70
2023/08/03 02:01:53;;;;;;;9.68;5.35;;;;;;;15.76;100.00;99042.41;5029281;28;20056;-70
2023/08/03 02:04:18;;;;;;;13.23;4.95;;;;;;;15.77;100.00;99046.72;5029550;28;20738;-70
2023/08/03 02:06:48;;;;;;;9.13;5.00;;;;;;;15.79;100.00;99043.75;5029210;28;20401;-70
2023/08/03 02:09:13;;;;;;;12.77;5.30;;;;;;;15.81;100.00;99046.16;5029323;28;20500;-70
2023/08/03 02:11:38;;;;;;;9.40;4.28;;;;;;;15.78;100.00;99034.88;5029253;28;20065;-70
2023/08/03 02:14:04;;;;;;;8.15;3.97;;;;;;;15.81;100.00;99052.34;5029087;28;20057;-70
2023/08/03 02:16:29;;;;;;;9.07;3.78;;;;;;;15.83;100.00;99055.56;5029196;28;20431;-70
2023/08/03 02:18:54;;;;;;;5.90;2.75;;;;;;;15.85;100.00;99049.91;5027653;28;20072;-70
2023/08/03 02:21:20;;;;;;;4.88;3.10;;;;;;;15.85;100.00;99056.09;5029300;28;20124;-70
2023/08/03 02:23:46;;;;;;;5.22;2.33;;;;;;;15.85;100.00;99052.59;5029489;28;20070;-70
2023/08/03 02:26:11;;;;;;;3.08;2.70;;;;;;;15.86;100.00;99057.69;5027696;28;20049;-70
2023/08/03 02:28:36;;;;;;;8.32;2.58;;;;;;;15.87;100.00;99061.19;5029014;28;20462;-70
2023/08/03 02:31:02;;;;;;;8.23;3.13;;;;;;;15.87;100.00;99050.44;5032276;28;20083;-71
2023/08/03 02:33:27;;;;;;;8.48;3.28;;;;;;;15.85;100.00;99045.34;5033101;28;20565;-70
2023/08/03 02:35:53;;;;;;;5.70;2.85;;;;;;;15.84;100.00;99043.72;5032699;28;20476;-70
2023/08/03 02:38:18;;;;;;;8.50;2.75;;;;;;;15.84;100.00;99056.38;5033045;28;20068;-71
2023/08/03 02:40:43;;;;;;;6.68;3.63;;;;;;;15.82;100.00;99045.88;5032929;28;20087;-70
2023/08/03 02:43:09;;;;;;;11.85;3.53;;;;;;;15.82;100.00;99045.88;5032864;28;20124;-70
2023/08/03 02:45:34;;;;;;;9.60;2.80;;;;;;;15.82;100.00;99043.19;5032832;28;20036;-70
2023/08/03 02:47:59;;;;;;;12.20;4.05;;;;;;;15.80;100.00;99031.94;5032864;28;20163;-71
2023/08/03 02:50:25;;;;;;;11.95;4.50;;;;;;;15.81;100.00;99025.47;5032773;28;20041;-70
2023/08/03 02:52:50;;;;;;;11.77;4.30;;;;;;;15.81;100.00;99027.34;5032786;28;20041;-70
2023/08/03 02:55:16;;;;;;;11.02;4.07;;;;;;;15.80;100.00;99028.41;5032628;28;20026;-70
2023/08/03 02:57:42;;;;;;;12.60;3.67;;;;;;;15.78;100.00;99032.19;5032600;28;20064;-70
2023/08/03 03:00:09;;;;;;;13.10;4.43;;;;;;;15.82;100.00;99042.38;5031226;28;20424;-71
2023/08/03 03:02:34;;;;;;;8.23;3.92;;;;;;;15.80;100.00;99045.38;5032494;28;20472;-70
2023/08/03 03:05:00;;;;;;;11.95;4.15;;;;;;;15.78;100.00;99051.00;5032560;28;20028;-70
2023/08/03 03:07:25;;;;;;;10.88;4.70;;;;;;;15.77;100.00;99046.72;5032399;28;20034;-70
2023/08/03 03:09:50;;;;;;;17.17;4.70;;;;;;;15.74;100.00;99047.25;5047674;28;20036;-70
2023/08/03 03:12:16;;;;;;;9.52;3.85;;;;;;;15.73;100.00;99037.59;5032332;28;20033;-71
2023/08/03 03:14:41;;;;;;;14.10;5.30;;;;;;;15.71;100.00;99047.00;5032322;28;20076;-70
2023/08/03 03:17:06;;;;;;;12.23;3.65;;;;;;;15.73;100.00;99047.53;5047569;28;20091;-70
2023/08/03 03:19:32;;;;;;;8.48;4.57;;;;;;;15.74;100.00;99055.31;5032166;28;20064;-70
2023/08/03 03:21:57;;;;;;;9.55;3.50;;;;;;;15.74;100.00;99063.38;5032225;28;20037;-71
2023/08/03 03:24:22;;;;;;;10.15;3.13;;;;;;;15.73;100.00;99061.78;5032103;28;20029;-70
2023/08/03 03:26:48;;;;;;;12.32;4.55;;;;;;;15.71;100.00;99058.56;5032154;28;20029;-71
2023/08/03 03:29:13;;;;;;;13.20;3.47;;;;;;;15.70;100.00;99074.97;5031900;28;20037;-70
2023/08/03 03:31:39;;;;;;;13.80;4.45;;;;;;;15.70;100.00;99086.53;5032077;28;20021;-70
2023/08/03 03:34:04;;;;;;;12.38;3.45;;;;;;;15.69;100.00;99084.94;5031898;28;20037;-70
2023/08/03 03:36:29;;;;;;;18.30;4.60;;;;;;;15.68;100.00;99088.66;5031895;28;20044;-70
2023/08/03 03:38:55;;;;;;;12.77;4.15;;;;;;;15.62;100.00;99076.31;5031850;28;20068;-71
2023/08/03 03:41:20;;;;;;;10.13;4.15;;;;;;;15.60;100.00;99083.03;5029593;28;20033;-71
2023/08/03 03:43:46;;;;;;;8.50;3.83;;;;;;;15.57;100.00;99090.56;5047122;28;20037;-71
2023/08/03 03:46:11;;;;;;;7.63;3.60;;;;;;;15.61;100.00;99101.56;5031825;28;20825;-70
2023/08/03 03:48:37;;;;;;;10.20;4.15;;;;;;;15.61;100.00;99096.19;5031593;28;20029;-70
2023/08/03 03:51:02;;;;;;;8.02;3.05;;;;;;;15.60;100.00;99101.84;5031542;28;20040;-70
2023/08/03 03:53:27;;;;;;;8.75;2.60;;;;;;;15.59;100.00;99111.78;5031513;28;20029;-71
2023/08/03 03:55:53;;;;;;;8.27;3.03;;;;;;;15.58;100.00;99120.91;5031575;28;20065;-70
2023/08/03 03:58:18;;;;;;;12.13;3.70;;;;;;;15.59;100.00;99124.41;5031553;28;20025;-70
2023/08/03 04:00:43;;;;;;;8.05;2.92;;;;;;;15.60;100.00;99128.72;5031438;28;20025;-70
2023/08/03 04:03:09;;;;;;;12.88;4.25;;;;;;;15.59;100.00;99132.47;5030179;28;20037;-70
2023/08/03 04:05:36;;;;;;;8.85;2.60;;;;;;;15.59;100.00;99145.91;5031027;28;20033;-70
2023/08/03 04:08:02;;;;;;;9.05;3.50;;;;;;;15.57;100.00;99135.44;5031433;28;20071;-71
2023/08/03 04:10:28;;;;;;;5.47;2.92;;;;;;;15.60;100.00;99145.63;5031194;28;20025;-70
2023/08/03 04:12:54;;;;;;;6.40;3.53;;;;;;;15.56;100.00;99147.25;5031039;28;20033;-70
2023/08/03 04:15:19;;;;;;;8.85;3.60;;;;;;;15.61;100.00;99152.63;5031084;28;20032;-70
2023/08/03 04:17:45;;;;;;;3.38;2.53;;;;;;;15.59;100.00;99153.97;5031396;28;20049;-70
2023/08/03 04:20:11;;;;;;;9.63;2.92;;;;;;;15.58;100.00;99158.53;5031033;28;20070;-70
2023/08/03 04:22:37;;;;;;;11.73;3.53;;;;;;;15.55;100.00;99173.31;5031088;28;20144;-70
2023/08/03 04:25:03;;;;;;;5.25;2.70;;;;;;;15.51;100.00;99171.44;5031099;28;20804;-70
2023/08/03 04:27:29;;;;;;;6.55;2.55;;;;;;;15.54;100.00;99184.34;5029670;28;20029;-70
2023/08/03 04:29:54;;;;;;;4.63;2.22;;;;;;;15.52;100.00;99173.88;5030460;28;20025;-70
2023/08/03 04:32:19;;;;;;;4.57;2.22;;;;;;;15.55;100.00;99188.66;5030016;28;20499;-70
2023/08/03 04:34:45;;;;;;;3.33;1.95;;;;;;;15.55;100.00;99185.94;5030181;28;20025;-71
2023/08/03 04:37:10;;;;;;;3.58;1.83;;;;;;;15.54;100.00;99195.91;5045696;28;20037;-71
2023/08/03 04:39:35;;;;;;;4.65;2.00;;;;;;;15.53;100.00;99199.66;5029726;28;20032;-70
2023/08/03 04:42:01;;;;;;;5.03;1.50;;;;;;;15.54;100.00;99201.28;5029560;28;20021;-71
2023/08/03 04:44:26;;;;;;;1.75;1.65;;;;;;;15.54;100.00;99200.47;5030459;28;20438;-70
2023/08/03 04:46:51;;;;;;;3.90;1.95;;;;;;;15.55;100.00;99202.88;5029012;28;20120;-70
2023/08/03 04:49:17;;;;;;;2.20;1.60;;;;;;;15.57;100.00;99205.31;5028745;28;20041;-70
2023/08/03 04:51:42;;;;;;;2.10;1.70;;;;;;;15.59;100.00;99205.84;5029785;28;20536;-70
2023/08/03 04:54:08;;;;;;;6.20;2.50;;;;;;;15.61;100.00;99208.25;5030599;28;20440;-70
2023/08/03 04:56:33;;;;;;;1.60;1.50;;;;;;;15.63;100.00;99211.47;5045567;28;20083;-70
2023/08/03 04:58:59;;;;;;;5.82;2.28;;;;;;;15.63;100.00;99214.97;5030303;28;20079;-70
2023/08/03 05:01:24;;;;;;;3.30;2.33;;;;;;;15.65;100.00;99218.19;5030330;28;20171;-70
2023/08/03 05:03:49;;;;;;;6.45;2.40;;;;;;;15.67;100.00;99221.44;5028889;28;20060;-70
2023/08/03 05:06:14;;;;;;;5.10;1.90;;;;;;;15.64;100.00;99224.66;5030284;28;20026;-70
2023/08/03 05:08:40;;;;;;;2.60;2.10;;;;;;;15.67;100.00;99223.31;5030087;28;20055;-70
2023/08/03 05:11:05;;;;;;;3.60;2.28;;;;;;;15.68;100.00;99219.53;5029485;28;21135;-70
2023/08/03 05:13:31;;;;;;;7.18;2.20;;;;;;;15.67;100.00;99226.81;5027569;28;20472;-70
2023/08/03 05:15:58;;;;;;;3.78;2.20;;;;;;;15.67;100.00;99232.19;5027469;28;20893;-71
2023/08/03 05:18:23;;;;;;;2.30;1.70;;;;;;;15.66;100.00;99235.91;5029583;28;20036;-70
2023/08/03 05:20:49;;;;;;;4.65;2.30;;;;;;;15.59;100.00;99230.03;5028221;28;20033;-70
2023/08/03 05:23:14;;;;;;;2.20;2.00;;;;;;;15.62;100.00;99242.94;5028642;28;20103;-70
2023/08/03 05:25:40;;;;;;;4.30;1.92;;;;;;;15.63;100.00;99244.53;5029844;28;20021;-70
2023/08/03 05:28:06;;;;;;;3.67;1.60;;;;;;;15.67;100.00;99250.19;5029787;28;20496;-71
2023/08/03 05:30:31;;;;;;;4.00;1.77;;;;;;;15.67;100.00;99264.44;5029936;28;20037;-71
2023/08/03 05:32:57;;;;;;;6.95;1.75;;;;;;;15.64;100.00;99262.28;5029666;28;20036;-71
2023/08/03 05:35:22;;;;;;;7.13;1.67;;;;;;;15.64;100.00;99264.13;5029798;28;20477;-70
2023/08/03 05:37:52;;;;;;;5.25;1.85;;;;;;;15.65;100.00;99271.16;5029682;28;20033;-70
2023/08/03 05:40:18;;;;;;;9.93;2.38;;;;;;;15.69;100.00;99280.31;5029487;28;20032;-71
2023/08/03 05:42:43;;;;;;;7.15;1.80;;;;;;;15.71;100.00;99280.84;5029636;28;20033;-71
2023/08/03 05:45:32;;;;;;;5.93;2.28;;;;;;;15.73;100.00;99292.94;5029479;28;20037;-70
2023/08/03 05:47:58;;;;;;;10.45;2.38;;;;;;;15.74;100.00;99297.22;5029143;28;20029;-71
2023/08/03 05:50:24;;;;;;;2.72;1.60;;;;;;;15.76;100.00;99297.78;5029599;28;20113;-71
2023/08/03 05:52:50;;;;;;;6.20;1.30;;;;;;;15.77;100.00;99304.78;5029555;28;20469;-71
2023/08/03 05:55:16;;;;;;;5.68;1.75;;;;;;;15.80;100.00;99305.28;5029439;28;20666;-71
2023/08/03 05:57:41;;;;;;;7.20;1.75;;;;;;;15.78;100.00;99309.06;5029534;28;20033;-71
2023/08/03 06:00:18;;;;;;;8.57;2.30;;;;;;;15.87;100.00;99311.22;5029364;28;20421;-70
2023/08/03 06:02:45;;;;;;;7.20;1.63;;;;;;;15.90;100.00;99310.69;5029355;28;20026;-70
2023/08/03 06:05:43;;;;;;;7.53;1.38;;;;;;;15.97;100.00;99324.66;5028999;28;20030;-70
2023/08/03 06:08:18;;;;;;;9.70;1.73;;;;;;;15.99;100.00;99327.91;5029356;28;20025;-71
2023/08/03 06:10:49;;;;;;;4.03;1.48;;;;;;;16.04;100.00;99325.19;5029251;28;20039;-70
2023/08/03 06:13:17;;;;;;;4.82;1.20;;;;;;;16.05;100.00;99334.06;5029118;28;20041;-70
2023/08/03 06:15:44;;;;;;;4.30;1.85;;;;;;;16.05;100.00;99326.81;5028964;28;20032;-71
2023/08/03 06:18:19;;;;;;;4.78;1.60;;;;;;;16.04;100.00;99330.59;5029248;28;20076;-70
2023/08/03 06:20:47;;;;;;;2.13;1.73;;;;;;;16.01;100.00;99339.19;5028893;28;20036;-71
2023/08/03 06:23:18;;;;;;;7.95;1.98;;;;;;;15.98;100.00;99347.78;5028994;28;20070;-71
2023/08/03 06:25:48;;;;;;;6.28;1.70;;;;;;;15.95;100.00;99338.38;5027904;28;20032;-72
2023/08/03 06:28:18;;;;;;;7.07;1.77;;;;;;;16.00;100.00;99361.75;5029184;28;20029;-71
2023/08/03 06:30:44;;;;;;;8.88;2.50;;;;;;;16.02;100.00;99351.56;5029143;28;20099;-71
2023/08/03 06:33:17;;;;;;;6.18;2.28;;;;;;;16.07;100.00;99351.56;5028945;28;20118;-71
2023/08/03 06:35:46;;;;;;;6.28;1.80;;;;;;;16.12;100.00;99362.31;5028903;28;20029;-70
2023/08/03 06:38:15;;;;;;;4.35;1.50;;;;;;;16.14;100.00;99360.16;5028761;28;20033;-71
2023/08/03 06:40:45;;;;;;;8.15;2.45;;;;;;;16.17;100.00;99365.00;5028758;28;20075;-71
2023/08/03 06:43:12;;;;;;;5.90;1.08;;;;;;;16.20;100.00;99369.03;5027910;28;20416;-71
2023/08/03 06:45:37;;;;;;;9.50;1.23;;;;;;;16.18;100.00;99371.97;5028629;28;20026;-72
2023/08/03 06:48:03;;;;;;;3.15;1.35;;;;;;;16.17;100.00;99377.66;5028698;28;20033;-71
2023/08/03 06:50:31;;;;;;;4.32;1.30;;;;;;;16.21;100.00;99384.09;5028619;28;20469;-71
2023/08/03 06:52:57;;;;;;;7.15;1.85;;;;;;;16.23;100.00;99381.13;5028758;28;20503;-71
2023/08/03 06:55:22;;;;;;;4.65;1.83;;;;;;;16.32;100.00;99391.09;5028512;28;20706;-71
2023/08/03 06:57:48;;;;;;;4.22;1.65;;;;;;;16.39;100.00;99401.56;5028793;28;20030;-71
2023/08/03 07:00:14;;;;;;;8.80;2.83;;;;;;;16.40;100.00;99403.16;5028519;28;20036;-72
2023/08/03 07:02:40;;;;;;;7.45;1.48;;;;;;;16.35;100.00;99404.00;5028499;28;20105;-72
2023/08/03 07:05:06;;;;;;;2.78;0.95;;;;;;;16.27;100.00;99404.53;5028465;28;20464;-71
2023/08/03 07:07:31;;;;;;;7.15;1.85;;;;;;;16.38;100.00;99410.72;5028695;28;20044;-71
2023/08/03 07:09:59;;;;;;;3.35;1.90;;;;;;;16.44;100.00;99402.38;5028712;28;20207;-71
2023/08/03 07:12:24;;;;;;;8.73;2.30;;;;;;;16.61;100.00;99420.94;5028729;28;20029;-71
2023/08/03 07:14:50;;;;;;;2.33;1.23;;;;;;;16.65;100.00;99408.53;5026497;28;20390;-71
2023/08/03 07:17:15;;;;;;;5.40;1.80;;;;;;;16.72;100.00;99423.59;5029995;28;20554;-71
2023/08/03 07:19:41;;;;;;;4.43;1.20;;;;;;;16.71;100.00;99432.75;5047545;28;20080;-73
2023/08/03 07:22:07;;;;;;;4.40;1.30;;;;;;;16.65;100.00;99430.06;5032084;28;20495;-71
2023/08/03 07:24:33;;;;;;;4.03;1.30;;;;;;;16.62;100.00;99430.59;5031938;28;20025;-71
2023/08/03 07:27:00;;;;;;;7.47;1.38;;;;;;;16.60;100.00;99438.13;5032112;28;20052;-70
2023/08/03 07:29:27;;;;;;;6.80;1.63;;;;;;;16.63;100.00;99431.41;5031630;28;20037;-71
2023/08/03 07:31:52;;;;;;;2.78;1.25;;;;;;;16.62;100.00;99440.56;5031909;28;20025;-70
2023/08/03 07:34:17;;;;;;;6.38;1.88;;;;;;;16.61;100.00;99444.31;5031468;28;20719;-73
2023/08/03 07:36:43;;;;;;;7.28;2.15;;;;;;;16.62;100.00;99441.38;5031682;28;20037;-70
2023/08/03 07:39:09;;;;;;;4.00;1.20;;;;;;;16.63;100.00;99437.59;5046852;28;20036;-70
2023/08/03 07:41:34;;;;;;;6.43;1.55;;;;;;;16.67;100.00;99442.47;5030424;28;20045;-70
2023/08/03 07:43:59;;;;;;;6.75;1.40;;;;;;;16.65;100.00;99448.09;5031237;28;20481;-72
2023/08/03 07:46:25;;;;;;;10.70;2.30;;;;;;;16.67;100.00;99455.91;5030530;28;20415;-71
2023/08/03 07:48:50;;;;;;;7.70;1.83;;;;;;;16.64;100.00;99457.25;5031659;28;20053;-71
2023/08/03 07:51:17;;;;;;;8.77;1.52;;;;;;;16.61;100.00;99464.00;5030821;28;20029;-72
2023/08/03 07:53:42;;;;;;;8.65;2.42;;;;;;;16.59;100.00;99473.41;5030951;28;20048;-71
2023/08/03 07:56:19;;;;;;;6.65;2.10;;;;;;;16.57;100.00;99473.69;5031172;28;20033;-71
2023/08/03 07:58:45;;;;;;;6.32;1.52;;;;;;;16.59;100.00;99476.13;5027930;28;20396;-72
2023/08/03 08:01:11;;;;;;;9.60;2.15;;;;;;;16.57;100.00;99484.44;5044988;28;20487;-74
2023/08/03 08:03:38;;;;;;;6.00;2.15;;;;;;;16.55;100.00;99486.59;5028370;28;20034;-72
2023/08/03 08:06:15;;;;;;;6.20;1.83;;;;;;;16.53;100.00;99491.47;5030852;28;20112;-72
2023/08/03 08:08:42;;;;;;;4.97;1.15;;;;;;;16.51;100.00;99499.00;5030896;28;20124;-73
2023/08/03 08:11:07;;;;;;;5.45;1.52;;;;;;;16.47;100.00;99500.59;5031088;28;20044;-74
2023/08/03 08:13:33;;;;;;;11.23;1.80;;;;;;;16.44;100.00;99501.94;5031023;28;20046;-73
2023/08/03 08:16:03;;;;;;;5.57;1.48;;;;;;;16.46;100.00;99511.66;5031190;28;20033;-73
2023/08/03 08:18:29;;;;;;;8.95;1.55;;;;;;;16.46;100.00;99514.34;5031173;28;20032;-73
2023/08/03 08:21:01;;;;;;;8.55;2.70;;;;;;;16.43;100.00;99513.78;5031252;28;20029;-73
2023/08/03 08:23:27;;;;;;;4.10;1.83;;;;;;;16.43;100.00;99511.09;5029880;28;20040;-73
2023/08/03 08:25:52;;;;;;;7.88;1.80;;;;;;;16.48;100.00;99514.84;5031418;28;20033;-72
2023/08/03 08:28:18;;;;;;;3.65;1.13;;;;;;;16.49;100.00;99533.44;5030897;28;20390;-73
2023/08/03 08:30:44;;;;;;;5.97;1.90;;;;;;;16.43;100.00;99540.69;5030458;28;20388;-74
2023/08/03 08:33:10;;;;;;;7.55;1.63;;;;;;;16.39;100.00;99541.50;5030818;28;20033;-73
2023/08/03 08:35:36;;;;;;;4.22;1.88;;;;;;;16.42;100.00;99549.03;5030947;28;20033;-73
2023/08/03 08:38:04;;;;;;;5.65;1.80;;;;;;;16.39;100.00;99560.31;5030933;28;20468;-73
2023/08/03 08:40:30;;;;;;;6.35;1.45;;;;;;;16.39;100.00;99549.56;5030510;28;20033;-73
2023/08/03 08:42:56;;;;;;;7.63;2.08;;;;;;;16.35;100.00;99560.06;5031048;28;20029;-74
2023/08/03 08:45:21;;;;;;;5.78;1.70;;;;;;;16.31;100.00;99566.25;5030583;28;20025;-73
2023/08/03 08:47:47;;;;;;;10.10;1.73;;;;;;;16.24;100.00;99563.78;5030535;28;20464;-74
2023/08/03 08:50:13;;;;;;;4.38;1.33;;;;;;;16.29;100.00;99574.56;5030513;28;20088;-74
2023/08/03 08:52:42;;;;;;;9.48;1.67;;;;;;;16.35;100.00;99580.78;5030387;28;20099;-73
2023/08/03 08:55:11;;;;;;;8.60;2.03;;;;;;;16.42;100.00;99589.41;5030482;28;20040;-74
2023/08/03 08:57:38;;;;;;;9.15;2.50;;;;;;;16.40;100.00;99592.38;5030540;28;20039;-73
2023/08/03 09:00:07;;;;;;;4.43;1.55;;;;;;;16.45;100.00;99599.63;5030447;28;20053;-73
2023/08/03 09:02:34;;;;;;;4.05;1.05;;;;;;;16.49;100.00;99599.91;5030052;28;20025;-73
2023/08/03 09:05:10;;;;;;;2.85;1.02;;;;;;;16.52;100.00;99610.94;5030464;28;20033;-73
2023/08/03 09:07:35;;;;;;;8.30;2.03;;;;;;;16.56;100.00;99613.94;5030267;28;20029;-73
2023/08/03 09:10:02;;;;;;;7.53;1.48;;;;;;;16.57;100.00;99621.72;5030163;28;20892;-73
2023/08/03 09:12:27;;;;;;;3.88;1.10;;;;;;;16.62;100.00;99623.63;5030189;28;20028;-73
2023/08/03 09:14:53;;;;;;;5.80;2.33;;;;;;;16.70;100.00;99633.88;5029938;28;20057;-72
2023/08/03 09:17:19;;;;;;;6.85;1.98;;;;;;;16.79;100.00;99639.56;5029845;28;20045;-72
2023/08/03 09:19:48;;;;;;;4.20;1.30;;;;;;;16.89;100.00;99642.25;5029611;28;20065;-72
2023/08/03 09:22:13;;;;;;;6.13;1.70;;;;;;;16.92;100.00;99638.22;5029995;28;20018;-72
2023/08/03 09:24:39;;;;;;;3.95;2.05;;;;;;;17.02;100.00;99649.00;5029949;28;20542;-73
2023/08/03 09:27:04;;;;;;;3.63;1.70;;;;;;;17.08;100.00;99653.31;5029909;28;20037;-73
2023/08/03 09:29:31;;;;;;;2.42;1.17;;;;;;;17.19;100.00;99664.91;5029751;28;20040;-73
2023/08/03 09:32:04;;;;;;;8.05;2.83;;;;;;;17.33;100.00;99663.28;5029706;28;20083;-73
2023/08/03 09:34:42;;;;;;;6.10;2.42;;;;;;;17.51;100.00;99670.00;5029900;28;20029;-73
2023/08/03 09:37:08;;;;;;;6.65;2.13;;;;;;;17.67;100.00;99668.09;5029591;28;20095;-73
2023/08/03 09:39:36;;;;;;;4.30;1.50;;;;;;;17.78;100.00;99676.97;5011144;28;20056;-73
2023/08/03 09:42:03;;;;;;;5.40;1.52;;;;;;;17.83;100.00;99685.91;5029593;28;20084;-72
2023/08/03 09:44:30;;;;;;;3.88;1.88;;;;;;;17.90;100.00;99697.22;5028969;28;20021;-73
2023/08/03 09:46:56;;;;;;;7.00;1.60;;;;;;;18.17;100.00;99702.25;5028412;28;20021;-73
2023/08/03 09:49:22;;;;;;;4.85;1.77;;;;;;;18.29;100.00;99709.25;5028587;28;20038;-73
2023/08/03 09:51:51;;;;;;;6.45;1.63;;;;;;;18.43;100.00;99715.66;5029460;28;20345;-72
2023/08/03 09:54:34;;;;;;;7.63;1.85;;;;;;;18.44;100.00;99727.25;5027943;28;20041;-73
2023/08/03 09:57:02;;;;;;;3.03;1.60;;;;;;;18.37;100.00;99724.88;5029370;28;20026;-73
2023/08/03 09:59:32;;;;;;;5.65;2.08;;;;;;;18.50;100.00;99720.78;5044767;28;20543;-73
2023/08/03 10:02:01;;;;;;;6.15;2.20;;;;;;;18.58;100.00;99736.41;5029355;28;20033;-73
2023/08/03 10:04:29;;;;;;;6.57;2.17;;;;;;;18.44;100.00;99738.84;5029324;28;20052;-74
2023/08/03 10:07:01;;;;;;;4.43;2.15;;;;;;;18.48;100.00;99739.94;5029364;28;20051;-73
2023/08/03 10:09:33;;;;;;;6.60;2.65;;;;;;;18.69;100.00;99748.75;5029412;28;20116;-72
2023/08/03 10:12:03;;;;;;;6.68;3.28;;;;;;;18.75;100.00;99752.28;5029306;28;20489;-72
2023/08/03 10:14:34;;;;;;;8.57;2.30;;;;;;;18.74;100.00;99758.72;5028905;28;20068;-73
2023/08/03 10:17:00;;;;;;;11.98;2.75;;;;;;;18.74;100.00;99769.53;5029287;28;20444;-73
2023/08/03 10:19:28;;;;;;;7.72;2.22;;;;;;;18.61;100.00;99770.94;5028510;28;20044;-73
2023/08/03 10:21:53;;;;;;;8.68;3.45;;;;;;;18.54;100.00;99781.22;5029381;28;20056;-73
2023/08/03 10:24:19;;;;;;;10.20;3.33;;;;;;;18.55;100.00;99772.88;5029677;28;20033;-74
2023/08/03 10:26:56;;;;;;;8.00;2.08;;;;;;;18.56;100.00;99779.88;5029218;28;20026;-73
2023/08/03 10:29:50;;;;;;;8.52;3.20;;;;;;;18.58;100.00;99777.69;5029218;28;20049;-73
2023/08/03 10:32:27;;;;;;;7.60;2.35;;;;;;;18.77;100.00;99780.63;5027696;28;20049;-73
2023/08/03 10:34:58;;;;;;;15.93;2.33;;;;;;;18.89;100.00;99776.78;5043746;28;20033;-73
2023/08/03 10:37:23;;;;;;;6.25;2.25;;;;;;;19.01;100.00;99778.06;5028980;28;20469;-73
2023/08/03 10:39:51;;;;;;;8.65;2.30;;;;;;;19.12;100.00;99786.91;5028465;28;20052;-73
2023/08/03 10:42:19;;;;;;;8.85;2.08;;;;;;;19.24;100.00;99792.78;5027956;28;20029;-72
2023/08/03 10:44:44;;;;;;;7.25;1.95;;;;;;;19.39;100.00;99782.97;5028592;28;20412;-72
2023/08/03 10:47:28;;;;;;;6.32;2.45;;;;;;;19.35;100.00;99798.94;5029009;28;20026;-72
2023/08/03 10:49:58;;;;;;;9.68;2.58;;;;;;;19.49;100.00;99804.50;5028324;28;20115;-72
2023/08/03 10:52:28;;;;;;;5.97;1.92;;;;;;;19.73;100.00;99814.66;5032019;28;20117;-72
2023/08/03 10:54:54;;;;;;;9.88;3.20;;;;;;;20.01;100.00;99807.66;5032107;28;20048;-72
2023/08/03 10:57:25;;;;;;;5.45;2.13;;;;;;;20.04;100.00;99821.44;5032546;28;20030;-72
2023/08/03 10:59:58;;;;;;;4.10;2.40;;;;;;;20.06;100.00;99818.44;5032238;28;20029;-72
2023/08/03 11:02:27;;;;;;;9.70;2.53;;;;;;;19.98;100.00;99824.47;5032181;28;20083;-72
2023/08/03 11:04:53;;;;;;;10.93;3.17;;;;;;;19.86;100.00;99825.66;5031672;28;20036;-72
2023/08/03 11:07:24;;;;;;;7.80;2.33;;;;;;;19.85;100.00;99823.22;5031940;28;20103;-72
2023/08/03 11:09:53;;;;;;;6.53;2.20;;;;;;;20.19;100.00;99834.00;5030639;28;20025;-72
2023/08/03 11:12:22;;;;;;;8.98;2.50;;;;;;;20.39;100.00;99846.53;5032133;28;20033;-72
2023/08/03 11:14:49;;;;;;;3.45;2.42;;;;;;;20.27;100.00;99854.25;5031888;28;20049;-72
2023/08/03 11:17:15;;;;;;;7.72;2.08;;;;;;;20.00;100.00;99850.16;5032025;28;20040;-72
2023/08/03 11:19:41;;;;;;;6.97;2.25;;;;;;;19.87;100.00;99851.59;5031595;28;20989;-72
2023/08/03 11:22:08;;;;;;;10.02;2.22;;;;;;;20.00;100.00;99858.28;5031646;28;20048;-72